createdAt,value
2022-12-08T07:18:08.950Z,36.50
2022-12-08T07:18:44.077Z,35.47
2022-12-08T07:19:15.782Z,42.47
2022-12-08T07:19:47.412Z,47.88
2022-12-08T07:20:19.162Z,47.83
2022-12-08T07:20:50.736Z,48.35
2022-12-08T07:21:22.385Z,49.72
2022-12-08T07:21:53.928Z,51.63
2022-12-08T07:22:25.493Z,53.15
2022-12-08T07:22:57.106Z,50.58
2022-12-08T07:23:28.737Z,52.05
2022-12-08T07:24:00.353Z,52.78
2022-12-08T07:24:31.976Z,51.67
2022-12-08T07:25:03.683Z,50.95
2022-12-08T07:25:35.279Z,52.88
2022-12-08T07:26:08.611Z,51.42
2022-12-08T07:26:41.260Z,53.38
2022-12-08T07:27:12.899Z,52.47
2022-12-08T07:27:45.074Z,52.70
2022-12-08T07:28:16.699Z,54.40
2022-12-08T07:28:48.623Z,53.33
2022-12-08T07:29:24.698Z,55.17
2022-12-08T07:29:58.064Z,53.30
2022-12-08T07:30:29.838Z,49.92
2022-12-08T07:31:01.943Z,54.42
2022-12-08T07:31:34.290Z,50.90
2022-12-08T07:32:07.938Z,47.47
2022-12-08T07:32:39.773Z,53.65
2022-12-08T07:33:11.334Z,45.90
2022-12-08T07:33:43.263Z,47.38
2022-12-08T07:34:14.890Z,49.00
2022-12-08T07:34:47.365Z,47.53
2022-12-08T07:35:19.089Z,44.88
2022-12-08T07:36:06.587Z,47.28
2022-12-08T07:36:38.154Z,49.42
2022-12-08T07:37:09.774Z,52.10
2022-12-08T07:37:41.389Z,50.28
2022-12-08T07:38:13.042Z,47.33
2022-12-08T07:38:44.834Z,50.35
2022-12-08T07:39:16.521Z,52.97
2022-12-08T07:39:48.094Z,56.05
2022-12-08T07:40:19.740Z,67.95
2022-12-08T07:40:52.803Z,65.32
2022-12-08T07:41:26.371Z,70.15
2022-12-08T07:41:57.971Z,69.47
2022-12-08T07:42:29.663Z,74.97
2022-12-08T07:43:01.219Z,81.10
2022-12-08T07:43:32.882Z,90.78
2022-12-08T07:44:04.823Z,85.50
2022-12-08T07:44:36.438Z,82.35
2022-12-08T07:45:08.499Z,79.35
2022-12-08T07:45:41.408Z,83.45
2022-12-08T07:46:14.945Z,81.13
2022-12-08T07:46:46.603Z,79.05
2022-12-08T07:47:18.177Z,74.03
2022-12-08T07:51:34.035Z,78.93
2022-12-08T07:52:05.655Z,77.38
2022-12-08T07:52:37.239Z,78.07
2022-12-08T07:54:09.502Z,76.28
2022-12-08T07:54:41.124Z,75.53
2022-12-08T07:55:12.855Z,80.53
2022-12-08T07:55:44.506Z,78.97
2022-12-08T07:56:16.249Z,77.25
2022-12-08T07:56:47.940Z,81.57
2022-12-08T07:57:19.600Z,83.80
2022-12-08T08:00:40.184Z,79.78
2022-12-08T08:01:26.516Z,96.15
2022-12-08T08:02:21.300Z,89.35
2022-12-08T08:02:49.884Z,81.10
2022-12-08T08:03:22.429Z,95.20
2022-12-08T08:03:56.463Z,105.22
2022-12-08T08:04:28.107Z,89.57
2022-12-08T08:05:03.774Z,126.20
2022-12-08T08:05:35.474Z,143.40
2022-12-08T08:06:07.175Z,142.82
2022-12-08T08:06:38.863Z,226.55
2022-12-08T08:07:10.587Z,223.40
2022-12-08T08:07:43.783Z,159.70
2022-12-08T08:08:15.917Z,114.50
2022-12-08T08:08:47.799Z,120.50
2022-12-08T08:09:19.422Z,146.55
2022-12-08T08:09:50.999Z,158.20
2022-12-08T08:11:21.341Z,187.02
2022-12-08T08:12:22.250Z,141.70
2022-12-08T08:12:44.983Z,128.98
2022-12-08T08:13:16.571Z,150.68
2022-12-08T08:13:50.296Z,156.27
2022-12-08T08:14:21.915Z,154.25
2022-12-08T08:14:53.529Z,163.18
2022-12-08T08:15:25.606Z,159.40
2022-12-08T08:16:07.062Z,137.65
2022-12-08T08:16:39.072Z,112.07
2022-12-08T08:17:10.840Z,99.72
2022-12-08T08:17:42.500Z,88.03
2022-12-08T08:18:14.094Z,83.43
2022-12-08T08:18:48.895Z,83.75
2022-12-08T08:20:15.707Z,68.22
2022-12-08T08:20:47.266Z,73.90
2022-12-08T08:22:12.165Z,68.72
2022-12-08T08:22:45.756Z,77.95
2022-12-08T08:23:17.365Z,74.82
2022-12-08T08:23:49.073Z,71.53
2022-12-08T08:24:22.245Z,68.32
2022-12-08T08:24:54.357Z,68.13
2022-12-08T08:25:26.018Z,62.00
2022-12-08T08:26:02.408Z,63.70
2022-12-08T08:26:34.390Z,58.15
2022-12-08T08:27:05.986Z,61.65
2022-12-08T08:27:37.701Z,63.65
2022-12-08T08:28:09.280Z,62.83
2022-12-08T08:28:41.092Z,58.50
2022-12-08T08:29:12.695Z,64.38
2022-12-08T08:29:44.433Z,50.97
2022-12-08T08:30:20.307Z,56.80
2022-12-08T08:30:52.565Z,60.92
2022-12-08T08:31:26.014Z,57.38
2022-12-08T08:31:57.749Z,55.10
2022-12-08T08:32:33.092Z,54.28
2022-12-08T08:33:04.685Z,55.17
2022-12-08T08:33:36.318Z,55.50
2022-12-08T08:34:10.661Z,56.33
2022-12-08T08:34:42.248Z,54.42
2022-12-08T08:35:14.205Z,61.10
2022-12-08T08:35:45.792Z,56.55
2022-12-08T08:36:17.376Z,57.30
2022-12-08T08:36:49.010Z,55.40
2022-12-08T08:37:20.686Z,56.70
2022-12-08T08:37:52.340Z,52.15
2022-12-08T08:38:24.335Z,52.42
2022-12-08T08:38:55.931Z,54.85
2022-12-08T08:39:32.092Z,50.20
2022-12-08T08:40:04.289Z,53.90
2022-12-08T08:40:36.404Z,53.70
2022-12-08T08:41:09.883Z,54.30
2022-12-08T08:41:41.712Z,48.30
2022-12-08T08:42:13.292Z,51.03
2022-12-08T08:42:44.927Z,51.40
2022-12-08T08:43:37.910Z,45.53
2022-12-08T08:44:09.875Z,45.80
2022-12-08T08:44:43.201Z,45.28
2022-12-08T08:45:14.920Z,43.92
2022-12-08T08:45:46.572Z,43.22
2022-12-08T08:46:18.304Z,46.50
2022-12-08T08:46:49.963Z,42.33
2022-12-08T08:47:21.668Z,48.35
2022-12-08T08:47:53.294Z,38.85
2022-12-08T08:48:28.939Z,40.88
2022-12-08T08:49:01.275Z,40.78
2022-12-08T08:49:32.910Z,42.70
2022-12-08T08:50:05.457Z,44.88
2022-12-08T08:50:37.830Z,52.17
2022-12-08T08:51:11.131Z,44.20
2022-12-08T08:51:43.810Z,41.95
2022-12-08T08:52:15.612Z,42.40
2022-12-08T08:52:47.190Z,40.88
2022-12-08T08:53:19.114Z,43.03
2022-12-08T08:53:50.796Z,40.97
2022-12-08T08:54:22.476Z,42.17
2022-12-08T08:54:54.112Z,40.67
2022-12-08T08:55:25.742Z,39.83
2022-12-08T08:55:57.447Z,44.03
2022-12-08T08:56:29.000Z,38.22
2022-12-08T08:57:01.051Z,40.50
2022-12-08T08:57:32.614Z,38.50
2022-12-08T08:58:04.163Z,35.88
2022-12-08T08:58:35.787Z,35.42
2022-12-08T09:00:06.143Z,37.20
2022-12-08T09:00:38.199Z,39.45
2022-12-08T09:01:15.563Z,36.50
2022-12-08T09:01:47.239Z,34.60
2022-12-08T09:02:19.929Z,35.03
2022-12-08T09:02:51.693Z,31.67
2022-12-08T09:03:23.311Z,32.25
2022-12-08T09:03:55.963Z,32.45
2022-12-08T09:04:27.797Z,32.25
2022-12-08T09:04:59.811Z,33.25
2022-12-08T09:05:31.634Z,35.15
2022-12-08T09:06:03.341Z,33.85
2022-12-08T09:06:35.048Z,32.13
2022-12-08T09:07:06.693Z,33.88
2022-12-08T09:07:38.367Z,33.15
2022-12-08T09:08:10.170Z,32.90
2022-12-08T09:08:42.876Z,35.28
2022-12-08T09:09:14.675Z,31.55
2022-12-08T09:09:46.326Z,33.28
2022-12-08T09:10:17.972Z,33.20
2022-12-08T09:10:49.618Z,30.20
2022-12-08T09:11:23.390Z,35.88
2022-12-08T09:11:55.694Z,30.90
2022-12-08T09:12:27.268Z,33.53
2022-12-08T09:12:58.869Z,29.25
2022-12-08T09:13:30.448Z,29.25
2022-12-08T09:14:02.034Z,30.10
2022-12-08T09:14:33.802Z,31.23
2022-12-08T09:15:05.918Z,31.42
2022-12-08T09:15:37.604Z,32.30
2022-12-08T09:16:11.795Z,28.70
2022-12-08T09:16:43.623Z,27.52
2022-12-08T09:17:15.387Z,26.35
2022-12-08T09:17:47.063Z,24.42
2022-12-08T09:18:18.679Z,24.20
2022-12-08T09:18:50.711Z,26.48
2022-12-08T09:19:22.435Z,27.40
2022-12-08T09:19:54.092Z,25.50
2022-12-08T09:20:25.761Z,25.13
2022-12-08T09:21:03.509Z,28.73
2022-12-08T09:21:35.217Z,25.17
2022-12-08T09:22:09.590Z,27.77
2022-12-08T09:22:41.207Z,26.80
2022-12-08T09:23:12.846Z,26.33
2022-12-08T09:23:44.411Z,26.25
2022-12-08T09:25:11.895Z,29.73
2022-12-08T09:25:46.480Z,30.88
2022-12-08T09:26:18.409Z,27.30
2022-12-08T09:26:50.157Z,28.60
2022-12-08T09:27:21.870Z,28.83
2022-12-08T09:27:53.465Z,29.20
2022-12-08T09:28:25.043Z,31.02
2022-12-08T09:28:57.757Z,28.77
2022-12-08T09:29:35.350Z,30.75
2022-12-08T09:30:08.927Z,29.02
2022-12-08T09:30:41.174Z,30.08
2022-12-08T09:31:14.381Z,31.38
2022-12-08T09:31:46.275Z,33.95
2022-12-08T09:32:17.915Z,29.85
2022-12-08T09:32:49.504Z,30.38
2022-12-08T09:33:21.086Z,31.92
2022-12-08T09:33:53.002Z,28.73
2022-12-08T09:34:24.626Z,31.23
2022-12-08T09:34:56.258Z,29.83
2022-12-08T09:35:27.934Z,33.80
2022-12-08T09:36:03.990Z,30.35
2022-12-08T09:36:35.601Z,31.13
2022-12-08T09:37:07.195Z,30.85
2022-12-08T09:37:38.930Z,30.77
2022-12-08T09:38:10.566Z,28.45
2022-12-08T09:38:42.183Z,29.90
2022-12-08T09:39:13.778Z,29.05
2022-12-08T09:39:45.373Z,30.75
2022-12-08T09:40:20.325Z,30.35
2022-12-08T09:40:53.533Z,28.10
2022-12-08T09:41:36.872Z,28.58
2022-12-08T09:42:11.648Z,32.00
2022-12-08T09:43:13.384Z,32.30
2022-12-08T09:44:02.977Z,29.13
2022-12-08T09:44:59.824Z,27.75
2022-12-08T09:45:35.332Z,29.17
2022-12-08T09:46:15.676Z,29.15
2022-12-08T09:46:50.750Z,32.60
2022-12-08T09:47:32.087Z,29.63
2022-12-08T09:48:23.527Z,28.63
2022-12-08T09:48:58.295Z,31.17
2022-12-08T09:49:44.612Z,31.58
2022-12-08T09:50:29.242Z,35.00
2022-12-08T09:51:01.530Z,33.65
2022-12-08T09:51:38.155Z,30.90
2022-12-08T09:52:21.327Z,34.60
2022-12-08T09:53:00.007Z,33.55
2022-12-08T09:54:13.698Z,32.13
2022-12-08T09:54:45.396Z,33.72
2022-12-08T09:55:24.491Z,32.05
2022-12-08T09:56:00.282Z,35.30
2022-12-08T09:56:36.170Z,32.00
2022-12-08T09:57:15.642Z,31.52
2022-12-08T09:57:56.627Z,31.85
2022-12-08T09:58:48.330Z,34.35
2022-12-08T09:59:23.970Z,34.17
2022-12-08T10:00:01.410Z,31.30
2022-12-08T10:00:33.956Z,32.47
2022-12-08T10:01:05.658Z,32.30
2022-12-08T10:01:41.978Z,31.23
2022-12-08T10:02:22.280Z,33.42
2022-12-08T10:02:56.108Z,34.67
2022-12-08T10:03:29.853Z,33.53
2022-12-08T10:04:01.898Z,31.50
2022-12-08T10:09:42.011Z,33.15
2022-12-08T10:10:28.342Z,29.63
2022-12-08T10:11:07.832Z,32.50
2022-12-08T10:12:02.905Z,36.53
2022-12-08T10:12:41.791Z,31.30
2022-12-08T10:13:38.259Z,37.10
2022-12-08T10:14:33.839Z,32.05
2022-12-08T10:15:32.868Z,31.60
2022-12-08T10:16:29.779Z,33.15
2022-12-08T10:17:09.216Z,42.22
2022-12-08T10:17:49.558Z,33.05
2022-12-08T10:18:27.320Z,34.72
2022-12-08T10:19:10.856Z,31.95
2022-12-08T10:19:43.390Z,34.53
2022-12-08T10:20:16.908Z,27.48
2022-12-08T10:20:50.525Z,32.50
2022-12-08T10:21:27.013Z,30.25
2022-12-08T10:21:58.731Z,30.90
2022-12-08T10:22:38.706Z,33.33
2022-12-08T10:23:12.942Z,30.55
2022-12-08T10:23:54.467Z,29.67
2022-12-08T10:24:37.467Z,28.08
2022-12-08T10:25:28.726Z,29.70
2022-12-08T10:26:12.662Z,31.38
2022-12-08T10:26:44.911Z,28.80
2022-12-08T10:27:16.515Z,28.83
2022-12-08T10:27:51.414Z,32.35
2022-12-08T10:28:23.015Z,31.45
2022-12-08T10:29:01.207Z,30.80
2022-12-08T10:29:33.603Z,31.38
2022-12-08T10:30:17.219Z,30.55
2022-12-08T10:30:48.840Z,32.75
2022-12-08T10:31:23.171Z,30.85
2022-12-08T10:31:58.189Z,29.90
2022-12-08T10:32:35.394Z,29.38
2022-12-08T10:33:15.527Z,30.95
2022-12-08T10:33:49.622Z,33.15
2022-12-08T10:34:24.360Z,29.95
2022-12-08T10:35:04.474Z,28.50
2022-12-08T10:35:47.994Z,30.15
2022-12-08T10:36:19.611Z,30.23
2022-12-08T10:36:57.105Z,28.40
2022-12-08T10:37:28.897Z,31.40
2022-12-08T10:38:02.886Z,33.30
2022-12-08T10:38:36.693Z,30.75
2022-12-08T10:39:43.862Z,31.50
2022-12-08T10:40:18.723Z,27.17
2022-12-08T10:40:53.396Z,30.10
2022-12-08T10:41:25.106Z,29.92
2022-12-08T10:42:02.805Z,30.95
2022-12-08T10:42:59.816Z,31.92
2022-12-08T10:43:33.231Z,30.75
2022-12-08T10:44:04.959Z,27.65
2022-12-08T10:44:55.636Z,30.40
2022-12-08T10:45:37.708Z,31.80
2022-12-08T10:46:15.362Z,30.35
2022-12-08T10:46:47.160Z,32.60
2022-12-08T10:47:22.230Z,30.88
2022-12-08T10:47:56.854Z,28.88
2022-12-08T10:48:33.364Z,30.42
2022-12-08T10:49:05.006Z,31.08
2022-12-08T10:49:38.688Z,34.90
2022-12-08T10:50:22.764Z,30.95
2022-12-08T10:50:56.619Z,29.38
2022-12-08T10:51:34.141Z,30.63
2022-12-08T10:52:21.845Z,30.83
2022-12-08T10:53:01.239Z,29.95
2022-12-08T10:53:34.297Z,31.83
2022-12-08T10:54:24.317Z,29.17
2022-12-08T10:55:00.559Z,26.48
2022-12-08T10:55:47.167Z,26.38
2022-12-08T10:56:21.009Z,29.70
2022-12-08T10:56:57.620Z,28.67
2022-12-08T10:57:29.213Z,24.48
2022-12-08T10:58:00.785Z,27.30
2022-12-08T10:58:36.599Z,22.45
2022-12-08T10:59:16.417Z,26.23
2022-12-08T10:59:50.907Z,30.25
2022-12-08T11:00:26.365Z,25.88
2022-12-08T11:01:02.869Z,28.13
2022-12-08T11:01:38.101Z,28.52
2022-12-08T11:02:19.343Z,29.20
2022-12-08T11:03:04.733Z,27.45
2022-12-08T11:03:48.902Z,27.60
2022-12-08T11:04:23.863Z,26.08
2022-12-08T11:06:08.986Z,30.25
2022-12-08T11:06:42.776Z,27.52
2022-12-08T11:07:22.932Z,31.80
2022-12-08T11:07:55.702Z,30.63
2022-12-08T11:08:31.100Z,30.58
2022-12-08T11:09:05.008Z,29.45
2022-12-08T11:09:48.744Z,29.52
2022-12-08T11:10:27.143Z,30.10
2022-12-08T11:10:58.746Z,29.55
2022-12-08T11:12:01.198Z,30.13
2022-12-08T11:12:33.607Z,28.35
2022-12-08T11:13:12.516Z,27.75
2022-12-08T11:14:44.139Z,26.30
2022-12-08T11:15:17.432Z,26.20
2022-12-08T11:15:50.119Z,28.20
2022-12-08T11:16:23.126Z,25.67
2022-12-08T11:17:03.630Z,25.73
2022-12-08T11:17:44.004Z,27.15
2022-12-08T11:18:27.027Z,24.38
2022-12-08T11:21:10.963Z,25.50
2022-12-08T11:21:45.431Z,26.02
2022-12-08T11:22:29.638Z,30.05
2022-12-08T11:23:01.259Z,29.98
2022-12-08T11:23:36.034Z,30.25
2022-12-08T11:27:27.740Z,27.80
2022-12-08T11:28:01.346Z,26.80
2022-12-08T11:35:57.651Z,27.73
2022-12-08T11:36:33.182Z,26.13
2022-12-08T11:37:07.171Z,24.65
2022-12-08T11:37:43.639Z,27.15
2022-12-08T11:38:22.377Z,26.77
2022-12-08T11:50:35.603Z,26.23
2022-12-08T11:51:19.612Z,29.23
2022-12-08T11:51:53.707Z,27.08
2022-12-08T11:52:33.927Z,26.73
2022-12-08T11:53:12.819Z,26.65
2022-12-08T12:04:52.164Z,23.00
2022-12-08T12:05:56.977Z,23.90
2022-12-08T12:06:55.061Z,23.35
2022-12-08T12:07:58.084Z,24.13
2022-12-08T12:08:40.119Z,24.25
2022-12-08T12:09:38.062Z,25.95
2022-12-08T12:12:14.118Z,24.48
2022-12-08T12:12:57.542Z,21.13
2022-12-08T12:13:50.898Z,23.45
2022-12-08T12:16:00.402Z,22.50
2022-12-08T12:17:11.113Z,24.60
2022-12-08T12:17:47.439Z,23.38
2022-12-08T12:19:06.494Z,26.35
2022-12-08T12:19:40.200Z,28.88
2022-12-08T12:21:29.369Z,25.13
2022-12-08T12:22:12.195Z,26.23
2022-12-08T12:22:46.644Z,25.98
2022-12-08T12:23:27.805Z,25.98
2022-12-08T12:24:05.058Z,23.10
2022-12-08T12:24:38.701Z,25.75
2022-12-08T12:26:26.471Z,27.88
2022-12-08T12:27:06.816Z,27.02
2022-12-08T12:27:40.640Z,24.50
2022-12-08T12:28:13.523Z,25.48
2022-12-08T12:28:52.788Z,26.33
2022-12-08T12:29:27.907Z,22.85
2022-12-08T12:30:04.372Z,23.83
2022-12-08T12:30:57.968Z,23.88
2022-12-08T12:31:51.715Z,25.20
2022-12-08T12:32:24.470Z,23.40
2022-12-08T12:33:01.178Z,22.05
2022-12-08T12:33:33.513Z,21.95
2022-12-08T12:34:11.112Z,27.20
2022-12-08T12:34:51.067Z,25.10
2022-12-08T12:35:37.992Z,25.98
2022-12-08T12:36:10.866Z,23.58
2022-12-08T12:36:49.394Z,25.55
2022-12-08T12:37:36.590Z,25.10
2022-12-08T12:38:40.256Z,27.30
2022-12-08T12:39:14.250Z,23.70
2022-12-08T12:40:04.898Z,25.00
2022-12-08T12:40:41.611Z,23.85
2022-12-08T12:41:14.466Z,26.35
2022-12-08T12:41:57.287Z,24.50
2022-12-08T12:42:43.405Z,25.40
2022-12-08T12:43:29.837Z,23.70
2022-12-08T12:44:13.137Z,27.25
2022-12-08T12:47:54.279Z,27.10
2022-12-08T12:48:28.478Z,24.38
2022-12-08T12:51:47.822Z,24.60
2022-12-08T12:52:19.517Z,26.23
2022-12-08T12:52:51.134Z,26.55
2022-12-08T12:53:22.764Z,25.63
2022-12-08T12:53:54.446Z,23.63
2022-12-08T12:54:29.354Z,26.45
2022-12-08T12:55:00.894Z,23.15
2022-12-08T12:55:51.148Z,25.40
2022-12-08T12:57:04.321Z,25.33
2022-12-08T12:57:38.059Z,26.67
2022-12-08T12:58:19.739Z,26.95
2022-12-08T12:58:54.030Z,22.85
2022-12-08T12:59:39.749Z,29.55
2022-12-08T13:00:23.650Z,29.50
2022-12-08T13:01:10.369Z,27.80
2022-12-08T13:01:53.731Z,23.33
2022-12-08T13:02:36.456Z,24.55
2022-12-08T13:03:15.043Z,26.75
2022-12-08T13:03:50.604Z,27.83
2022-12-08T13:04:35.406Z,24.55
2022-12-08T13:05:24.868Z,25.58
2022-12-08T13:05:56.655Z,26.25
2022-12-08T13:06:43.263Z,24.77
2022-12-08T13:07:35.830Z,23.15
2022-12-08T13:08:19.455Z,24.88
2022-12-08T13:08:54.307Z,24.45
2022-12-08T13:09:31.596Z,26.02
2022-12-08T13:10:18.071Z,24.25
2022-12-08T13:11:01.923Z,28.50
2022-12-08T13:11:54.320Z,25.02
2022-12-08T13:12:28.250Z,25.33
2022-12-08T13:13:16.461Z,28.50
2022-12-08T13:14:04.447Z,23.80
2022-12-08T13:14:38.869Z,24.55
2022-12-08T13:15:18.836Z,23.95
2022-12-08T13:15:54.946Z,24.15
2022-12-08T13:16:31.538Z,24.17
2022-12-08T13:17:08.088Z,24.92
2022-12-08T13:17:45.299Z,25.45
2022-12-08T13:18:21.135Z,23.15
2022-12-08T13:18:57.922Z,24.63
2022-12-08T13:19:32.195Z,24.67
2022-12-08T13:20:07.179Z,25.25
2022-12-08T13:21:11.187Z,23.73
2022-12-08T13:21:43.061Z,25.02
2022-12-08T13:22:46.921Z,25.10
2022-12-08T13:23:36.609Z,24.35
2022-12-08T13:24:12.883Z,25.70
2022-12-08T13:24:45.310Z,24.30
2022-12-08T13:25:44.686Z,23.83
2022-12-08T13:26:18.058Z,26.00
2022-12-08T13:27:11.066Z,27.65
2022-12-08T13:27:53.495Z,24.58
2022-12-08T13:28:30.676Z,24.50
2022-12-08T13:29:03.611Z,26.20
2022-12-08T13:29:37.365Z,24.38
2022-12-08T13:30:53.744Z,20.42
2022-12-08T13:32:00.950Z,22.23
2022-12-08T13:33:49.138Z,23.33
2022-12-08T13:34:29.662Z,23.25
2022-12-08T13:35:04.204Z,23.05
2022-12-08T13:35:40.284Z,23.00
2022-12-08T13:36:22.511Z,24.90
2022-12-08T13:37:02.379Z,26.90
2022-12-08T13:37:54.483Z,26.52
2022-12-08T13:38:30.193Z,23.00
2022-12-08T13:39:02.229Z,24.27
2022-12-08T13:39:49.623Z,26.80
2022-12-08T13:40:27.725Z,24.58
2022-12-08T13:41:03.088Z,24.13
2022-12-08T13:41:51.749Z,23.30
2022-12-08T13:42:29.490Z,23.98
2022-12-08T13:43:16.484Z,23.92
2022-12-08T13:45:22.273Z,25.00
2022-12-08T13:46:52.864Z,26.65
2022-12-08T13:56:51.488Z,26.35
2022-12-08T13:57:28.824Z,24.20
2022-12-08T13:58:00.676Z,25.17
2022-12-08T13:58:35.222Z,24.30
2022-12-08T13:59:28.235Z,26.95
2022-12-08T14:00:14.590Z,26.55
2022-12-08T14:00:57.711Z,29.63
2022-12-08T14:01:29.433Z,26.13
2022-12-08T14:02:16.055Z,28.17
2022-12-08T14:02:56.115Z,26.42
2022-12-08T14:03:27.966Z,28.25
2022-12-08T14:06:38.202Z,25.83
2022-12-08T14:07:11.807Z,27.83
2022-12-08T14:07:44.553Z,27.27
2022-12-08T14:08:58.910Z,28.58
2022-12-08T14:09:42.326Z,27.20
2022-12-08T14:10:18.935Z,27.55
2022-12-08T14:11:02.251Z,32.85
2022-12-08T14:11:38.307Z,34.15
2022-12-08T14:12:25.877Z,30.95
2022-12-08T14:13:01.783Z,30.77
2022-12-08T14:13:34.342Z,34.83
2022-12-08T14:14:53.676Z,28.85
2022-12-08T14:15:19.975Z,27.30
2022-12-08T14:15:51.988Z,33.10
2022-12-08T14:16:29.537Z,28.98
2022-12-08T14:17:06.155Z,28.70
2022-12-08T14:17:40.247Z,28.08
2022-12-08T14:18:27.177Z,29.58
2022-12-08T14:19:05.513Z,29.73
2022-12-08T14:19:37.228Z,27.35
2022-12-08T14:20:11.652Z,29.27
2022-12-08T14:21:12.569Z,26.80
2022-12-08T14:21:36.381Z,27.77
2022-12-08T14:22:17.213Z,27.17
2022-12-08T14:22:50.217Z,28.40
2022-12-08T14:23:21.770Z,27.25
2022-12-08T14:23:53.363Z,26.42
2022-12-08T14:24:30.488Z,27.77
2022-12-08T14:25:03.949Z,28.25
2022-12-08T14:25:36.202Z,25.95
2022-12-08T14:26:10.479Z,27.92
2022-12-08T14:26:44.339Z,28.90
2022-12-08T14:27:19.161Z,27.17
2022-12-08T14:28:02.590Z,29.17
2022-12-08T14:28:34.317Z,27.95
2022-12-08T14:29:08.863Z,29.27
2022-12-08T14:29:44.883Z,27.42
2022-12-08T14:30:34.474Z,30.98
2022-12-08T14:31:06.820Z,31.48
2022-12-08T14:31:38.556Z,31.85
2022-12-08T14:32:28.537Z,28.08
2022-12-08T14:33:02.434Z,29.52
2022-12-08T14:33:34.096Z,31.67
2022-12-08T14:34:05.690Z,31.08
2022-12-08T14:34:41.095Z,33.20
2022-12-08T14:35:29.511Z,42.75
2022-12-08T14:36:01.133Z,39.15
2022-12-08T14:36:33.873Z,39.85
2022-12-08T14:37:05.591Z,39.45
2022-12-08T14:38:03.753Z,38.25
2022-12-08T14:38:35.535Z,30.60
2022-12-08T14:39:08.944Z,33.38
2022-12-08T14:39:40.894Z,39.03
2022-12-08T14:40:23.138Z,39.58
2022-12-08T14:41:09.487Z,36.33
2022-12-08T14:41:41.094Z,34.78
2022-12-08T14:42:24.728Z,32.85
2022-12-08T14:43:08.218Z,30.65
2022-12-08T14:43:41.059Z,26.60
2022-12-08T14:44:23.910Z,28.83
2022-12-08T14:45:02.050Z,28.33
2022-12-08T14:45:40.267Z,27.77
2022-12-08T14:46:23.052Z,28.13
2022-12-08T14:47:09.661Z,28.67
2022-12-08T14:47:41.462Z,25.98
2022-12-08T14:48:28.148Z,25.95
2022-12-08T14:48:59.809Z,28.05
2022-12-08T14:49:34.181Z,29.50
2022-12-08T14:50:44.638Z,28.08
2022-12-08T14:51:18.887Z,24.60
2022-12-08T14:51:50.514Z,28.08
2022-12-08T14:52:22.795Z,26.33
2022-12-08T14:52:54.463Z,27.80
2022-12-08T14:53:28.186Z,28.90
2022-12-08T14:54:08.533Z,28.30
2022-12-08T14:54:43.240Z,29.23
2022-12-08T14:55:15.934Z,29.05
2022-12-08T14:55:49.195Z,29.05
2022-12-08T14:56:24.123Z,28.52
2022-12-08T14:56:56.914Z,27.42
2022-12-08T14:57:34.624Z,29.30
2022-12-08T14:58:06.534Z,29.23
2022-12-08T14:58:38.371Z,29.33
2022-12-08T14:59:34.829Z,27.50
2022-12-08T15:00:18.791Z,26.45
2022-12-08T15:00:54.552Z,29.45
2022-12-08T15:01:26.322Z,28.23
2022-12-08T15:02:16.243Z,30.05
2022-12-08T15:02:48.169Z,28.23
2022-12-08T15:03:22.144Z,26.88
2022-12-08T15:03:59.950Z,28.98
2022-12-08T15:04:31.611Z,32.17
2022-12-08T15:05:10.341Z,29.63
2022-12-08T15:42:38.019Z,27.27
2022-12-08T15:43:11.330Z,29.08
2022-12-08T15:43:43.016Z,31.42
2022-12-08T15:44:14.607Z,27.10
2022-12-08T15:44:46.218Z,28.70
2022-12-08T15:45:17.854Z,29.27
2022-12-08T15:46:00.679Z,30.88
2022-12-08T15:46:32.332Z,28.15
2022-12-08T15:47:04.374Z,26.23
2022-12-08T15:47:36.029Z,25.45
2022-12-08T15:48:07.673Z,28.90
2022-12-08T15:48:39.320Z,26.48
2022-12-08T15:49:17.401Z,27.52
2022-12-08T15:49:51.327Z,30.25
2022-12-08T15:50:23.844Z,26.23
2022-12-08T15:50:56.286Z,23.45
2022-12-08T15:51:27.876Z,27.50
2022-12-08T15:52:10.660Z,27.88
2022-12-08T15:52:43.933Z,29.20
2022-12-08T15:53:16.474Z,28.13
2022-12-08T15:53:48.064Z,34.28
2022-12-08T15:54:19.766Z,34.72
2022-12-08T15:54:51.531Z,35.58
2022-12-08T15:55:23.242Z,36.33
2022-12-08T15:57:17.809Z,33.95
2022-12-08T15:58:31.210Z,33.75
2022-12-08T15:58:55.119Z,32.65
2022-12-08T15:59:27.971Z,32.33
2022-12-08T15:59:59.591Z,28.80
2022-12-08T16:01:26.621Z,28.45
2022-12-08T16:01:58.465Z,28.88
2022-12-08T16:02:49.194Z,28.77
2022-12-08T16:06:57.458Z,26.17
2022-12-08T16:07:57.620Z,28.75
2022-12-08T16:08:46.235Z,27.10
2022-12-08T16:09:33.784Z,24.95
2022-12-08T16:10:07.094Z,25.02
2022-12-08T16:11:10.728Z,25.73
2022-12-08T16:12:06.034Z,27.05
2022-12-08T16:14:16.696Z,27.33
2022-12-08T16:15:47.015Z,24.35
2022-12-08T16:15:57.176Z,23.92
2022-12-08T16:16:31.143Z,25.73
2022-12-08T16:17:02.735Z,25.05
2022-12-08T16:17:35.168Z,24.85
2022-12-08T16:18:07.707Z,26.38
2022-12-08T16:18:40.192Z,27.73
2022-12-08T16:19:14.622Z,28.17
2022-12-08T16:19:46.289Z,26.08
2022-12-08T16:20:18.319Z,28.52
2022-12-08T16:22:17.544Z,27.45
2022-12-08T16:23:42.359Z,24.70
2022-12-08T16:24:15.564Z,19.70
2022-12-08T16:24:47.173Z,30.80
2022-12-08T16:25:20.952Z,24.70
2022-12-08T16:26:20.361Z,25.80
2022-12-08T16:27:51.201Z,24.55
2022-12-08T16:28:53.375Z,24.50
2022-12-08T16:29:22.654Z,25.23
2022-12-08T16:29:55.560Z,22.95
2022-12-08T16:30:27.185Z,23.60
2022-12-08T16:30:59.026Z,22.00
2022-12-08T16:31:31.030Z,23.85
2022-12-08T16:32:02.763Z,24.77
2022-12-08T16:32:34.439Z,24.73
2022-12-08T16:33:06.039Z,23.85
2022-12-08T16:33:37.703Z,24.90
2022-12-08T16:34:09.317Z,27.92
2022-12-08T16:34:41.571Z,29.42
2022-12-08T16:35:13.903Z,23.08
2022-12-08T16:35:45.569Z,22.73
2022-12-08T16:36:17.169Z,22.17
2022-12-08T16:36:49.003Z,21.70
2022-12-08T16:37:26.305Z,25.95
2022-12-08T16:37:58.287Z,25.90
2022-12-08T16:38:29.901Z,24.20
2022-12-08T16:39:01.619Z,23.77
2022-12-08T16:39:34.205Z,22.65
2022-12-08T16:40:07.380Z,25.65
2022-12-08T16:40:58.977Z,22.05
2022-12-08T16:41:49.100Z,22.83
2022-12-08T16:42:40.199Z,25.15
2022-12-08T16:43:11.771Z,25.95
2022-12-08T16:43:43.345Z,24.67
2022-12-08T16:44:14.960Z,25.23
2022-12-08T16:44:46.559Z,24.02
2022-12-08T16:45:26.144Z,24.90
2022-12-08T16:45:57.807Z,23.80
2022-12-08T16:46:29.652Z,27.55
2022-12-08T16:47:08.999Z,24.38
2022-12-08T16:47:42.979Z,26.15
2022-12-08T16:48:15.531Z,26.25
2022-12-08T16:48:47.192Z,31.33
2022-12-08T16:49:18.812Z,22.58
2022-12-08T16:49:50.661Z,23.98
2022-12-08T16:50:28.112Z,23.20
2022-12-08T16:50:59.766Z,26.20
2022-12-08T16:51:31.340Z,25.85
2022-12-08T16:52:02.902Z,25.35
2022-12-08T16:52:34.698Z,24.17
2022-12-08T16:53:11.103Z,32.10
2022-12-08T16:53:42.807Z,30.75
2022-12-08T16:54:14.391Z,27.85
2022-12-08T16:54:46.051Z,21.25
2022-12-08T16:55:19.495Z,23.35
2022-12-08T16:55:51.180Z,23.48
2022-12-08T16:56:28.739Z,23.77
2022-12-08T16:57:03.743Z,26.40
2022-12-08T16:57:35.453Z,23.60
2022-12-08T16:58:07.264Z,26.58
2022-12-08T16:58:38.960Z,31.13
2022-12-08T16:59:10.568Z,29.15
2022-12-08T16:59:42.258Z,28.48
2022-12-08T17:00:19.597Z,28.98
2022-12-08T17:00:51.241Z,34.33
2022-12-08T17:01:23.891Z,34.45
2022-12-08T17:01:55.886Z,28.83
2022-12-08T17:02:27.532Z,32.60
2022-12-08T17:02:59.133Z,28.52
2022-12-08T17:03:31.354Z,29.20
2022-12-08T17:04:54.810Z,28.20
2022-12-08T17:05:27.021Z,30.60
2022-12-08T17:05:58.683Z,31.48
2022-12-08T17:06:30.291Z,28.88
2022-12-08T17:07:02.029Z,27.95
2022-12-08T17:07:35.625Z,29.42
2022-12-08T17:08:07.343Z,29.00
2022-12-08T17:08:40.583Z,27.98
2022-12-08T17:09:12.206Z,30.48
2022-12-08T17:09:43.957Z,28.13
2022-12-08T17:10:19.020Z,31.40
2022-12-08T17:11:07.293Z,29.23
2022-12-08T17:11:42.902Z,29.23
2022-12-08T17:12:14.791Z,27.08
2022-12-08T17:12:47.001Z,28.77
2022-12-08T17:13:18.572Z,24.02
2022-12-08T17:13:50.167Z,23.73
2022-12-08T17:14:21.737Z,25.60
2022-12-08T17:14:53.304Z,27.20
2022-12-08T17:15:26.121Z,25.02
2022-12-08T17:15:57.729Z,26.83
2022-12-08T17:16:29.426Z,25.92
2022-12-08T17:17:01.142Z,27.95
2022-12-08T17:17:35.406Z,28.85
2022-12-08T17:18:06.991Z,28.38
2022-12-08T17:18:38.760Z,27.45
2022-12-08T17:19:13.325Z,27.00
2022-12-08T17:19:44.910Z,27.23
2022-12-08T17:20:20.532Z,26.13